Time;durP1;ratioP1;P1;durP2;ratioP2;P2;SDS_P1;SDS_P2;PMS_P1;PMS_P2;Temp;Humidity;BMP_temperature;BMP_pressure;BME280_temperature;BME280_humidity;BME280_pressure;Samples;Min_cycle;Max_cycle;Signal;HPM_P1;HPM_P2
2023/04/10 03:01:41;;;;;;;17.70;15.87;;;1.20;99.90;;;;;;5351917;23;20293;-78
2023/04/10 03:04:06;;;;;;;18.93;16.93;;;1.20;99.90;;;;;;4953727;29;20183;-78
2023/04/10 03:06:32;;;;;;;16.57;14.37;;;1.20;99.90;;;;;;4950138;29;20182;-78
2023/04/10 03:08:58;;;;;;;17.93;16.13;;;1.20;99.90;;;;;;4914366;29;20183;-78
2023/04/10 03:11:24;;;;;;;18.47;16.70;;;1.20;99.90;;;;;;4901790;29;20213;-78
2023/04/10 03:13:50;;;;;;;17.83;15.37;;;1.10;99.90;;;;;;4924817;29;20183;-79
2023/04/10 03:16:18;;;;;;;17.53;15.63;;;1.20;99.90;;;;;;4910386;29;20179;-79
2023/04/10 03:18:45;;;;;;;18.87;15.53;;;1.20;99.90;;;;;;4901080;29;20230;-77
2023/04/10 03:21:11;;;;;;;19.77;16.97;;;1.20;99.90;;;;;;4901523;29;20199;-77
2023/04/10 03:23:36;;;;;;;19.73;17.73;;;1.20;99.90;;;;;;4901091;29;20719;-76
2023/04/10 03:26:03;;;;;;;20.13;16.43;;;1.30;99.90;;;;;;4900851;29;20187;-77
2023/04/10 03:28:31;;;;;;;17.70;15.67;;;1.30;99.90;;;;;;4903123;29;20180;-79
2023/04/10 03:30:57;;;;;;;19.70;16.63;;;1.30;99.90;;;;;;4924062;29;20261;-77
2023/04/10 03:33:23;;;;;;;17.93;15.60;;;1.20;99.90;;;;;;4932842;29;20194;-79
2023/04/10 03:35:49;;;;;;;20.50;16.60;;;1.20;99.90;;;;;;4930008;29;20190;-77
2023/04/10 03:38:15;;;;;;;20.90;15.93;;;1.20;99.90;;;;;;4939726;29;20197;-77
2023/04/10 03:40:40;;;;;;;18.37;15.57;;;1.20;99.90;;;;;;4937933;29;20214;-77
2023/04/10 03:43:06;;;;;;;20.30;15.07;;;1.20;99.90;;;;;;4929928;29;20238;-77
2023/04/10 03:45:33;;;;;;;30.20;15.63;;;1.20;99.90;;;;;;4918005;29;20346;-77
2023/04/10 03:47:59;;;;;;;25.63;16.80;;;1.20;99.90;;;;;;4917944;29;20183;-77
2023/04/10 03:50:25;;;;;;;18.43;15.47;;;1.10;99.90;;;;;;4917213;29;20184;-76
2023/04/10 03:52:51;;;;;;;18.13;15.67;;;1.10;99.90;;;;;;4900594;29;20392;-77
2023/04/10 03:55:20;;;;;;;17.17;15.30;;;1.00;99.90;;;;;;4900706;29;20189;-77
2023/04/10 03:57:47;;;;;;;18.30;16.40;;;1.00;99.90;;;;;;4917852;29;20296;-77
2023/04/10 04:00:14;;;;;;;17.13;15.33;;;1.00;99.90;;;;;;4901375;29;20234;-77
2023/04/10 04:02:40;;;;;;;17.40;15.60;;;1.00;99.90;;;;;;4901224;29;20222;-77
2023/04/10 04:05:06;;;;;;;17.13;14.90;;;1.10;99.90;;;;;;4901069;29;20179;-78
2023/04/10 04:07:32;;;;;;;16.80;14.93;;;1.10;99.90;;;;;;4920353;29;20385;-77
2023/04/10 04:09:59;;;;;;;16.67;14.80;;;1.10;99.90;;;;;;4922354;29;20214;-77
2023/04/10 04:12:25;;;;;;;19.77;15.73;;;1.10;99.90;;;;;;4931116;29;20207;-77
2023/04/10 04:14:51;;;;;;;16.80;14.63;;;1.10;99.90;;;;;;4921757;29;20182;-77
2023/04/10 04:17:17;;;;;;;18.60;15.97;;;1.00;99.90;;;;;;4949296;29;20194;-77
2023/04/10 04:19:43;;;;;;;18.80;15.83;;;1.00;99.90;;;;;;4929779;29;20647;-77
2023/04/10 04:22:09;;;;;;;16.43;14.80;;;1.00;99.90;;;;;;4930978;29;20225;-77
2023/04/10 04:24:35;;;;;;;17.50;15.60;;;1.00;99.90;;;;;;4947971;29;20186;-77
2023/04/10 04:27:01;;;;;;;17.97;15.57;;;1.00;99.90;;;;;;4943717;29;20557;-77
2023/04/10 04:29:27;;;;;;;17.30;15.07;;;1.00;99.90;;;;;;4903603;29;20190;-77
2023/04/10 04:31:53;;;;;;;18.40;13.93;;;1.00;99.90;;;;;;4916561;29;20211;-77
2023/04/10 04:34:19;;;;;;;20.63;15.57;;;1.00;99.90;;;;;;4900478;29;20968;-79
2023/04/10 04:36:45;;;;;;;18.07;16.17;;;1.00;99.90;;;;;;4923324;29;20194;-77
2023/04/10 04:39:10;;;;;;;16.80;15.00;;;1.10;99.90;;;;;;4924650;29;20243;-77
2023/04/10 04:41:36;;;;;;;17.27;15.03;;;1.10;99.90;;;;;;4936794;29;20206;-77
2023/04/10 04:44:02;;;;;;;16.40;14.70;;;1.10;99.90;;;;;;4932926;29;20178;-78
2023/04/10 04:46:28;;;;;;;17.17;14.27;;;1.00;99.90;;;;;;4929704;29;20187;-80
2023/04/10 04:48:54;;;;;;;19.20;15.47;;;1.00;99.90;;;;;;4926440;29;20189;-77
2023/04/10 04:51:19;;;;;;;18.43;15.90;;;1.00;99.90;;;;;;4944872;29;20202;-78
2023/04/10 04:53:45;;;;;;;19.70;15.53;;;1.20;99.90;;;;;;4946809;29;20324;-78
2023/04/10 04:56:11;;;;;;;17.63;15.13;;;1.20;99.90;;;;;;4923889;29;20198;-78
2023/04/10 04:58:37;;;;;;;19.27;15.73;;;1.20;99.90;;;;;;4919622;29;20268;-77
2023/04/10 05:01:03;;;;;;;17.70;15.17;;;1.30;99.90;;;;;;4915422;29;20591;-77
2023/04/10 05:03:28;;;;;;;18.60;15.07;;;1.40;99.90;;;;;;4922455;29;20210;-73
2023/04/10 05:05:55;;;;;;;33.43;24.90;;;1.60;99.90;;;;;;4917351;29;20182;-73
2023/04/10 05:08:21;;;;;;;35.30;25.73;;;1.60;99.90;;;;;;4937248;29;20754;-73
2023/04/10 05:10:47;;;;;;;28.70;21.70;;;1.60;99.90;;;;;;4953197;29;20202;-73
2023/04/10 05:13:14;;;;;;;30.47;24.63;;;1.80;99.90;;;;;;4953826;29;20188;-72
2023/04/10 05:15:40;;;;;;;30.10;23.60;;;1.90;99.90;;;;;;4953541;28;20534;-74
2023/04/10 05:18:05;;;;;;;26.80;20.27;;;2.20;99.90;;;;;;4943265;29;20186;-73
2023/04/10 05:20:34;;;;;;;23.67;17.93;;;2.20;99.90;;;;;;4943069;29;20277;-72
2023/04/10 05:23:01;;;;;;;24.07;21.83;;;2.30;99.90;;;;;;4961535;29;20588;-72
2023/04/10 05:25:27;;;;;;;19.33;15.93;;;2.50;99.90;;;;;;4958166;28;20186;-72
2023/04/10 05:27:52;;;;;;;19.90;16.97;;;2.80;99.90;;;;;;4953456;28;20188;-73
2023/04/10 05:30:18;;;;;;;16.33;14.67;;;3.10;99.90;;;;;;4952518;29;20256;-71
2023/04/10 05:32:47;;;;;;;15.47;13.93;;;3.40;99.90;;;;;;4931833;29;20266;-72
2023/04/10 05:35:13;;;;;;;16.97;15.20;;;3.70;99.90;;;;;;4914890;29;20210;-71
2023/04/10 05:37:38;;;;;;;22.20;20.30;;;4.20;99.90;;;;;;4914677;29;20218;-71
2023/04/10 05:40:05;;;;;;;14.47;12.97;;;4.60;99.90;;;;;;4897220;29;20221;-73
2023/04/10 05:42:30;;;;;;;14.80;13.40;;;4.80;99.90;;;;;;4914551;29;20222;-73
2023/04/10 05:44:56;;;;;;;14.47;13.07;;;4.90;99.90;;;;;;4897876;29;20191;-72
2023/04/10 05:47:22;;;;;;;14.83;13.27;;;5.10;99.90;;;;;;4898390;29;20663;-73
2023/04/10 05:49:48;;;;;;;17.07;15.37;;;5.20;99.90;;;;;;4897511;29;20218;-73
2023/04/10 05:52:13;;;;;;;16.07;14.57;;;5.40;99.90;;;;;;4897605;29;20688;-73
2023/04/10 05:54:39;;;;;;;12.63;11.47;;;5.60;99.90;;;;;;4897313;29;20274;-74
2023/04/10 05:57:05;;;;;;;12.00;11.00;;;5.80;99.90;;;;;;4919759;29;20236;-74
2023/04/10 05:59:31;;;;;;;13.83;12.53;;;5.90;99.90;;;;;;4949837;29;20225;-73
2023/04/10 06:01:57;;;;;;;14.57;13.07;;;6.20;99.90;;;;;;4915783;29;20256;-74
2023/04/10 06:04:23;;;;;;;19.90;18.27;;;6.40;99.90;;;;;;4933450;29;20655;-74
2023/04/10 06:06:48;;;;;;;19.53;17.93;;;6.70;99.90;;;;;;4933428;29;20213;-73
2023/04/10 06:09:14;;;;;;;21.67;19.87;;;7.10;99.90;;;;;;4932741;29;20193;-73
2023/04/10 06:11:40;;;;;;;21.87;19.67;;;7.70;99.90;;;;;;4933467;29;20210;-71
2023/04/10 06:14:06;;;;;;;15.70;14.30;;;8.00;99.90;;;;;;4931450;29;20186;-74
2023/04/10 06:16:32;;;;;;;13.13;11.93;;;8.60;99.90;;;;;;4914431;29;20186;-73
2023/04/10 06:18:57;;;;;;;12.57;11.33;;;8.90;99.90;;;;;;4932726;29;20190;-74
2023/04/10 06:21:23;;;;;;;14.23;12.87;;;9.30;99.90;;;;;;4932997;29;20308;-74
2023/04/10 06:23:50;;;;;;;14.90;13.50;;;9.80;99.90;;;;;;4933294;29;20182;-72
2023/04/10 06:26:16;;;;;;;17.90;16.40;;;10.10;99.90;;;;;;4916307;29;20269;-73
2023/04/10 06:28:42;;;;;;;24.63;22.83;;;10.10;99.90;;;;;;4932208;29;20209;-72
2023/04/10 06:31:07;;;;;;;19.83;18.43;;;10.30;99.90;;;;;;4933093;29;20253;-72
2023/04/10 06:33:36;;;;;;;15.63;14.33;;;10.60;99.90;;;;;;4933301;29;20705;-72
2023/04/10 06:36:02;;;;;;;13.80;12.60;;;10.80;99.90;;;;;;4935970;29;20183;-73
2023/04/10 06:38:29;;;;;;;13.90;12.63;;;11.10;99.90;;;;;;4938666;29;20186;-73
2023/04/10 06:40:54;;;;;;;12.23;11.20;;;11.50;99.90;;;;;;4917171;29;20706;-73
2023/04/10 06:43:20;;;;;;;11.97;10.80;;;11.70;99.90;;;;;;4914427;29;20214;-73
2023/04/10 06:45:46;;;;;;;13.27;12.10;;;12.10;99.90;;;;;;4933268;29;20499;-73
2023/04/10 06:48:12;;;;;;;13.70;12.50;;;12.30;99.90;;;;;;4915871;29;20212;-73
2023/04/10 06:50:38;;;;;;;12.67;11.57;;;12.40;99.90;;;;;;4916105;29;20253;-73
2023/04/10 06:53:03;;;;;;;12.20;11.10;;;12.40;99.90;;;;;;4931593;29;20194;-73
2023/04/10 06:55:30;;;;;;;11.50;10.40;;;12.20;99.90;;;;;;4916231;29;20189;-73
2023/04/10 06:57:56;;;;;;;11.40;10.40;;;12.00;99.90;;;;;;4934134;29;20185;-73
2023/04/10 07:00:22;;;;;;;12.40;11.27;;;11.70;99.90;;;;;;4934389;29;20178;-73
2023/04/10 07:02:48;;;;;;;12.17;11.10;;;11.60;99.90;;;;;;4952279;28;20222;-73
2023/04/10 07:05:15;;;;;;;9.83;8.87;;;11.50;99.90;;;;;;4952346;29;20178;-73
2023/04/10 07:07:41;;;;;;;10.93;10.03;;;11.30;99.90;;;;;;4914683;29;20546;-73
2023/04/10 07:10:07;;;;;;;9.53;8.70;;;11.50;99.90;;;;;;4919361;29;20185;-73
2023/04/10 07:12:34;;;;;;;10.17;9.33;;;11.90;99.90;;;;;;4936580;29;20290;-73
2023/04/10 07:15:00;;;;;;;10.63;9.73;;;12.00;99.90;;;;;;4936460;29;20253;-75
2023/04/10 07:17:26;;;;;;;11.13;10.23;;;12.20;99.90;;;;;;4918139;29;20681;-72
2023/04/10 07:19:51;;;;;;;13.03;11.97;;;12.50;99.90;;;;;;4917633;29;20190;-74
2023/04/10 07:22:17;;;;;;;12.83;11.83;;;12.50;99.90;;;;;;4918895;29;20640;-74
2023/04/10 07:24:43;;;;;;;14.97;13.77;;;12.50;99.90;;;;;;4919027;29;20178;-73
2023/04/10 07:27:09;;;;;;;14.83;13.57;;;12.60;99.90;;;;;;4935310;29;20183;-74
2023/04/10 07:29:35;;;;;;;14.97;13.87;;;12.60;99.90;;;;;;4918851;29;20179;-75
2023/04/10 07:32:01;;;;;;;15.60;14.50;;;12.80;99.90;;;;;;4920445;29;20210;-75
2023/04/10 07:34:26;;;;;;;17.50;16.07;;;13.50;99.90;;;;;;4916854;29;20604;-75
2023/04/10 07:36:52;;;;;;;14.40;13.30;;;13.90;99.90;;;;;;4900592;29;20743;-74
2023/04/10 07:39:18;;;;;;;13.30;12.23;;;13.90;99.90;;;;;;4917021;29;20266;-75
2023/04/10 07:41:44;;;;;;;11.63;10.63;;;14.40;98.90;;;;;;4917181;29;20223;-75
2023/04/10 07:44:10;;;;;;;9.93;9.13;;;14.20;98.00;;;;;;4901758;29;20227;-74
2023/04/10 07:46:36;;;;;;;10.07;9.17;;;14.20;97.70;;;;;;4918148;29;20191;-74
2023/04/10 07:49:02;;;;;;;9.33;8.63;;;14.10;97.90;;;;;;4900451;29;20187;-75
2023/04/10 07:51:28;;;;;;;10.50;9.60;;;13.90;98.20;;;;;;4917109;29;20209;-75
2023/04/10 07:53:55;;;;;;;10.20;9.30;;;13.80;97.70;;;;;;4917295;29;20183;-73
2023/04/10 07:56:21;;;;;;;9.73;8.93;;;13.70;97.80;;;;;;4917083;29;20183;-74
2023/04/10 07:58:47;;;;;;;10.83;9.93;;;13.80;97.80;;;;;;4900931;29;20267;-74
2023/04/10 08:01:14;;;;;;;10.30;9.60;;;14.00;97.50;;;;;;4917189;29;20214;-74
2023/04/10 08:03:42;;;;;;;9.90;9.20;;;14.00;96.60;;;;;;4917348;29;20699;-75
2023/04/10 08:06:09;;;;;;;9.50;8.80;;;14.30;96.50;;;;;;4917029;29;20190;-74
2023/04/10 08:08:39;;;;;;;9.93;9.13;;;14.50;95.00;;;;;;4899788;29;20187;-74
2023/04/10 08:11:24;;;;;;;10.10;9.00;;;14.70;94.80;;;;;;4899800;29;20207;-74
2023/04/10 08:13:55;;;;;;;11.13;10.13;;;14.70;93.70;;;;;;4914795;29;20277;-74
2023/04/10 08:16:25;;;;;;;10.63;9.80;;;14.50;93.20;;;;;;4918639;29;20269;-74
2023/04/10 08:18:52;;;;;;;10.27;9.47;;;14.30;94.40;;;;;;4917651;29;20185;-74
2023/04/10 08:21:19;;;;;;;11.23;10.43;;;14.70;93.90;;;;;;4935629;29;20259;-74
2023/04/10 08:23:45;;;;;;;10.90;10.07;;;15.30;92.90;;;;;;4918664;29;20777;-74
2023/04/10 08:26:12;;;;;;;10.70;9.90;;;15.40;92.00;;;;;;4917221;29;20187;-70
2023/04/10 08:28:38;;;;;;;12.33;7.90;;;15.90;91.40;;;;;;4935409;29;20602;-70
2023/04/10 08:31:04;;;;;;;17.30;7.80;;;15.70;90.80;;;;;;4918289;29;20222;-67
2023/04/10 08:33:30;;;;;;;8.50;7.80;;;15.50;91.30;;;;;;4918457;29;20186;-67
2023/04/10 08:35:56;;;;;;;7.73;7.13;;;15.60;91.30;;;;;;4935261;29;20237;-66
2023/04/10 08:38:23;;;;;;;7.27;6.67;;;15.90;88.60;;;;;;4918028;29;20191;-66
2023/04/10 08:40:50;;;;;;;6.90;6.40;;;16.00;88.90;;;;;;4933474;29;20210;-68
2023/04/10 08:43:16;;;;;;;7.27;6.67;;;15.90;88.00;;;;;;4918335;29;20219;-69
2023/04/10 08:45:42;;;;;;;237.33;13.73;;;16.20;88.30;;;;;;4935277;29;20182;-67
2023/04/10 08:48:10;;;;;;;7.67;7.07;;;16.40;85.30;;;;;;4935391;29;20187;-72
2023/04/10 08:50:41;;;;;;;7.33;6.73;;;17.00;84.00;;;;;;4934693;29;20273;-69
2023/04/10 08:53:12;;;;;;;7.17;6.57;;;16.90;82.30;;;;;;4935156;29;20667;-66
2023/04/10 08:55:39;;;;;;;9.00;5.83;;;16.50;82.00;;;;;;4916700;29;20187;-67
2023/04/10 08:58:06;;;;;;;8.13;7.50;;;16.30;82.00;;;;;;4935597;29;20192;-73
2023/04/10 09:00:37;;;;;;;6.70;6.17;;;16.10;82.40;;;;;;4934483;29;21609;-68
2023/04/10 09:03:13;;;;;;;7.73;7.13;;;16.40;81.50;;;;;;4934837;29;20214;-67
2023/04/10 09:05:39;;;;;;;7.37;6.77;;;16.20;81.90;;;;;;4934825;29;20193;-65
2023/04/10 09:08:07;;;;;;;7.80;7.10;;;16.20;79.60;;;;;;4933503;29;20209;-70
2023/04/10 09:10:33;;;;;;;6.50;6.00;;;16.50;80.70;;;;;;4934191;29;20206;-71
2023/04/10 09:12:59;;;;;;;6.80;6.27;;;16.50;78.20;;;;;;4919098;29;20258;-73
2023/04/10 09:15:25;;;;;;;6.40;5.77;;;16.70;78.00;;;;;;4923305;23;20266;-72
2023/04/10 09:17:58;;;;;;;6.30;5.80;;;17.00;76.80;;;;;;4915864;29;20190;-72
2023/04/10 09:20:27;;;;;;;7.50;6.80;;;17.20;74.70;;;;;;4898477;29;20210;-71
2023/04/10 09:22:53;;;;;;;7.13;6.73;;;16.70;76.40;;;;;;4915574;29;20225;-71
2023/04/10 09:25:37;;;;;;;7.67;7.17;;;16.80;73.90;;;;;;4913891;29;20286;-71
2023/04/10 09:28:05;;;;;;;8.13;7.53;;;17.00;72.90;;;;;;4915598;29;20600;-71
2023/04/10 09:30:39;;;;;;;7.73;7.23;;;17.50;71.80;;;;;;4915290;29;20194;-75
2023/04/10 09:33:21;;;;;;;6.93;6.43;;;17.60;72.20;;;;;;4915640;29;20187;-72
2023/04/10 09:35:48;;;;;;;7.50;6.83;;;17.80;71.00;;;;;;4913790;29;20640;-72
2023/04/10 09:38:19;;;;;;;7.00;6.53;;;17.70;68.70;;;;;;4915461;29;20199;-72
2023/04/10 09:40:46;;;;;;;7.60;7.10;;;17.50;69.20;;;;;;4915297;29;20190;-73
2023/04/10 09:43:17;;;;;;;10.60;9.83;;;17.40;67.80;;;;;;4915188;29;20793;-73
2023/04/10 09:45:55;;;;;;;11.33;10.63;;;17.60;67.60;;;;;;4901312;29;20639;-73
2023/04/10 09:48:21;;;;;;;12.47;11.73;;;17.80;66.20;;;;;;4896177;29;20239;-71
2023/04/10 09:50:47;;;;;;;12.50;11.87;;;18.20;65.60;;;;;;4896545;29;20187;-72
2023/04/10 09:53:15;;;;;;;14.33;13.43;;;18.60;64.00;;;;;;4896393;29;20200;-73
2023/04/10 09:55:42;;;;;;;14.57;13.77;;;18.50;63.50;;;;;;4892267;29;20213;-73
2023/04/10 09:58:09;;;;;;;16.03;15.13;;;18.30;62.20;;;;;;4915244;29;20274;-73
2023/04/10 10:00:39;;;;;;;11.77;11.07;;;18.50;63.70;;;;;;4898175;29;20545;-74
2023/04/10 10:03:17;;;;;;;10.73;10.13;;;18.80;60.60;;;;;;4897739;29;20213;-72
2023/04/10 10:05:45;;;;;;;11.13;10.43;;;18.90;59.70;;;;;;4915375;29;20230;-72
2023/04/10 10:08:13;;;;;;;12.73;11.87;;;18.90;60.20;;;;;;4914314;29;20191;-73
2023/04/10 10:10:52;;;;;;;13.17;12.47;;;18.70;60.30;;;;;;4914162;29;20637;-73
2023/04/10 10:13:34;;;;;;;8.37;7.90;;;18.70;60.10;;;;;;4909437;29;20189;-72
2023/04/10 10:16:14;;;;;;;8.27;7.77;;;18.90;59.50;;;;;;4889803;29;20640;-73
2023/04/10 10:19:13;;;;;;;7.60;7.20;;;19.40;58.90;;;;;;4899031;29;20223;-72
2023/04/10 10:21:43;;;;;;;5.90;5.60;;;19.70;58.50;;;;;;4909123;29;20202;-72
2023/04/10 10:24:09;;;;;;;7.77;7.17;;;19.50;57.70;;;;;;4928171;29;20206;-73
2023/04/10 10:26:38;;;;;;;5.57;5.27;;;19.90;58.10;;;;;;4900057;29;20214;-73
2023/04/10 10:29:09;;;;;;;5.43;5.13;;;19.80;57.90;;;;;;4913075;29;20556;-72
2023/04/10 10:31:36;;;;;;;5.55;5.25;;;19.70;56.80;;;;;;4914551;29;20234;-73
2023/04/10 10:34:04;;;;;;;5.32;4.90;;;19.80;57.40;;;;;;4917207;29;20709;-73
2023/04/10 10:36:34;;;;;;;5.60;5.22;;;20.00;56.40;;;;;;4915229;29;20190;-73
2023/04/10 10:39:29;;;;;;;6.10;5.70;;;19.70;57.00;;;;;;4922936;29;20187;-77
2023/04/10 10:42:17;;;;;;;5.37;4.97;;;19.70;56.70;;;;;;4923121;29;20221;-81
2023/04/10 10:45:02;;;;;;;5.50;5.20;;;19.50;57.10;;;;;;4887715;29;20226;-80
2023/04/10 10:47:29;;;;;;;5.38;5.07;;;19.80;56.30;;;;;;4894197;29;20202;-81
2023/04/10 10:49:58;;;;;;;6.68;6.05;;;20.20;57.40;;;;;;4920379;29;20179;-82
2023/04/10 10:52:46;;;;;;;6.07;5.68;;;20.10;56.00;;;;;;4887068;29;20246;-78
2023/04/10 10:55:35;;;;;;;5.40;5.10;;;20.50;56.00;;;;;;4919056;29;20683;-78
2023/04/10 10:58:06;;;;;;;5.88;5.47;;;20.50;54.70;;;;;;4905982;29;20183;-79
2023/04/10 11:00:51;;;;;;;5.80;5.30;;;20.10;54.80;;;;;;4917635;29;20190;-78
2023/04/10 11:03:16;;;;;;;5.13;4.72;;;20.00;54.30;;;;;;4921843;29;20707;-79
2023/04/10 11:06:01;;;;;;;5.43;5.13;;;20.30;54.30;;;;;;4911725;29;20213;-80
2023/04/10 11:08:44;;;;;;;6.13;5.72;;;20.40;54.80;;;;;;4900412;29;20222;-78
2023/04/10 11:11:15;;;;;;;5.72;5.43;;;21.30;54.80;;;;;;4919487;29;20643;-80
2023/04/10 11:13:49;;;;;;;5.70;5.38;;;20.60;54.00;;;;;;4919283;29;20545;-80
2023/04/10 11:16:15;;;;;;;5.55;5.25;;;20.50;55.20;;;;;;4920266;29;20195;-80
2023/04/10 11:18:44;;;;;;;5.53;5.22;;;20.90;52.00;;;;;;4904019;29;20183;-78
2023/04/10 11:21:10;;;;;;;5.75;5.35;;;20.90;53.10;;;;;;4907423;29;20567;-77
2023/04/10 11:23:48;;;;;;;5.78;5.32;;;20.70;53.50;;;;;;4903914;29;20297;-75
2023/04/10 11:26:36;;;;;;;5.80;5.30;;;21.00;52.00;;;;;;4903004;29;20194;-75
2023/04/10 11:29:16;;;;;;;5.35;5.05;;;21.00;52.60;;;;;;4898123;29;20239;-75
2023/04/10 11:31:46;;;;;;;5.80;5.40;;;20.90;52.10;;;;;;4881610;29;21145;-76
2023/04/10 11:34:14;;;;;;;6.20;5.90;;;21.40;52.90;;;;;;4881574;29;20282;-75
2023/04/10 11:36:43;;;;;;;5.65;5.25;;;21.50;50.30;;;;;;4882527;29;20556;-75
2023/04/10 11:39:18;;;;;;;5.25;4.85;;;22.00;49.70;;;;;;4888103;29;20188;-78
2023/04/10 11:41:46;;;;;;;6.60;6.10;;;22.30;48.90;;;;;;4909671;29;20193;-77
2023/04/10 11:44:15;;;;;;;6.47;6.00;;;22.40;48.50;;;;;;4907204;29;20217;-78
2023/04/10 11:46:43;;;;;;;8.20;7.70;;;23.20;48.00;;;;;;4914075;29;20578;-78
2023/04/10 11:49:10;;;;;;;9.00;8.50;;;24.00;46.90;;;;;;4944853;29;20221;-78
2023/04/10 11:51:37;;;;;;;10.38;9.77;;;24.00;46.90;;;;;;4929071;29;20186;-79
2023/04/10 11:54:07;;;;;;;9.65;9.18;;;24.30;45.20;;;;;;4926451;29;20198;-77
2023/04/10 11:56:33;;;;;;;10.50;9.90;;;24.40;46.30;;;;;;4893420;29;20195;-77
2023/04/10 11:59:01;;;;;;;8.80;8.30;;;25.10;43.70;;;;;;4912101;29;20189;-78
2023/04/10 12:01:27;;;;;;;8.68;8.27;;;24.50;41.90;;;;;;4943413;29;20234;-78
2023/04/10 12:03:54;;;;;;;7.35;6.95;;;24.30;42.10;;;;;;4943418;29;20217;-78
2023/04/10 12:06:21;;;;;;;7.60;7.20;;;23.60;41.00;;;;;;4905122;29;20206;-77
2023/04/10 12:08:50;;;;;;;9.13;8.65;;;23.10;42.50;;;;;;4917720;29;20655;-78
2023/04/10 12:11:24;;;;;;;8.75;8.35;;;23.40;41.80;;;;;;4900562;29;20566;-76
2023/04/10 12:13:55;;;;;;;9.73;9.23;;;24.00;40.60;;;;;;4919438;29;20202;-77
2023/04/10 12:16:21;;;;;;;10.10;9.60;;;24.40;40.80;;;;;;4927982;29;20222;-77
2023/04/10 12:18:49;;;;;;;9.00;8.55;;;24.30;41.20;;;;;;4908536;29;20183;-77
2023/04/10 12:21:15;;;;;;;9.27;8.77;;;24.80;40.40;;;;;;4902032;29;20286;-77
2023/04/10 12:23:41;;;;;;;11.52;10.93;;;25.00;39.10;;;;;;4917287;29;20591;-77
2023/04/10 12:26:17;;;;;;;18.42;17.48;;;25.20;39.60;;;;;;4915289;29;20190;-78
2023/04/10 12:28:54;;;;;;;16.95;16.13;;;25.30;38.10;;;;;;4916203;29;20258;-77
2023/04/10 12:31:31;;;;;;;12.18;11.60;;;24.50;38.20;;;;;;4920589;29;20651;-78
2023/04/10 12:33:57;;;;;;;13.82;13.05;;;24.20;38.80;;;;;;4900390;29;20201;-78
2023/04/10 12:36:28;;;;;;;12.80;12.20;;;24.30;39.00;;;;;;4898914;29;20230;-77
2023/04/10 12:38:54;;;;;;;16.77;16.08;;;24.60;37.20;;;;;;4899181;29;20605;-76
2023/04/10 12:41:34;;;;;;;15.75;15.05;;;25.10;33.40;;;;;;4898924;29;20695;-76
2023/04/10 12:44:12;;;;;;;19.83;18.90;;;24.20;32.90;;;;;;4899181;29;20261;-77
2023/04/10 12:46:39;;;;;;;22.05;21.02;;;24.60;35.20;;;;;;4904865;29;20179;-78
2023/04/10 12:49:13;;;;;;;21.00;19.92;;;24.70;35.90;;;;;;4924137;29;20220;-78
2023/04/10 12:51:51;;;;;;;26.60;25.35;;;24.90;36.40;;;;;;4929417;29;20176;-77
2023/04/10 12:54:35;;;;;;;18.77;17.90;;;25.00;36.00;;;;;;4917034;29;20202;-78
2023/04/10 12:57:02;;;;;;;24.17;22.98;;;25.30;35.00;;;;;;4912930;29;20194;-76
2023/04/10 12:59:31;;;;;;;23.77;22.55;;;24.60;37.10;;;;;;4930188;29;20182;-77
2023/04/10 13:01:57;;;;;;;15.00;14.30;;;23.90;37.90;;;;;;4913820;29;20221;-79
2023/04/10 13:04:23;;;;;;;18.73;17.83;;;23.70;38.80;;;;;;4922147;29;20294;-78
2023/04/10 13:06:51;;;;;;;15.20;14.38;;;23.70;38.50;;;;;;4919979;29;20183;-79
2023/04/10 13:09:17;;;;;;;15.23;14.43;;;23.70;39.00;;;;;;4901432;29;20534;-78
2023/04/10 13:11:43;;;;;;;15.13;14.43;;;23.40;39.90;;;;;;4900573;29;20602;-77
2023/04/10 13:14:09;;;;;;;12.02;11.43;;;23.20;40.10;;;;;;4917266;29;20250;-78
2023/04/10 13:16:36;;;;;;;10.27;9.77;;;22.50;40.80;;;;;;4901295;29;20187;-78
2023/04/10 13:19:01;;;;;;;9.60;8.95;;;22.20;41.20;;;;;;4901425;29;20212;-78
2023/04/10 13:21:28;;;;;;;10.07;9.48;;;21.70;42.20;;;;;;4904646;29;20191;-78
2023/04/10 13:23:55;;;;;;;8.50;8.00;;;21.50;42.50;;;;;;4904236;29;20211;-78
2023/04/10 13:26:21;;;;;;;9.73;9.23;;;21.40;43.10;;;;;;4904149;29;20203;-78
2023/04/10 13:28:47;;;;;;;8.63;8.23;;;21.20;43.40;;;;;;4906032;29;20179;-79
2023/04/10 13:31:14;;;;;;;8.60;8.10;;;21.60;43.00;;;;;;4907084;29;20274;-79
2023/04/10 13:33:42;;;;;;;8.45;8.05;;;21.70;42.70;;;;;;4906227;29;20224;-79
2023/04/10 13:36:08;;;;;;;9.45;8.95;;;21.70;42.90;;;;;;4920116;29;20218;-79
2023/04/10 13:38:34;;;;;;;8.65;8.25;;;22.40;43.00;;;;;;4905329;29;20183;-78
2023/04/10 13:40:59;;;;;;;9.77;9.27;;;22.50;41.10;;;;;;4910753;29;20187;-79
2023/04/10 13:43:25;;;;;;;8.80;8.30;;;22.20;41.90;;;;;;4905652;29;20720;-79
2023/04/10 13:45:51;;;;;;;8.45;8.05;;;21.90;42.20;;;;;;4903903;29;20631;-78
2023/04/10 13:48:19;;;;;;;12.02;11.43;;;21.70;43.00;;;;;;4904702;29;20923;-79
2023/04/10 13:50:45;;;;;;;11.13;10.63;;;22.10;42.00;;;;;;4904663;29;20187;-78
2023/04/10 13:53:11;;;;;;;11.65;10.88;;;22.40;41.80;;;;;;4910955;29;20702;-78
2023/04/10 13:55:39;;;;;;;11.10;10.50;;;22.40;41.20;;;;;;4928209;29;20203;-77
2023/04/10 13:58:05;;;;;;;9.02;8.63;;;21.70;42.10;;;;;;4925784;29;20175;-78
2023/04/10 14:00:31;;;;;;;12.27;11.48;;;21.60;42.50;;;;;;4906382;29;20190;-79
2023/04/10 14:02:57;;;;;;;8.60;8.20;;;21.70;42.80;;;;;;4923348;29;20183;-79
2023/04/10 14:05:23;;;;;;;10.23;9.73;;;21.60;42.40;;;;;;4905681;29;20214;-79
2023/04/10 14:07:50;;;;;;;11.45;10.85;;;21.30;43.50;;;;;;4904165;29;20212;-79
2023/04/10 14:10:16;;;;;;;8.63;8.23;;;21.30;43.20;;;;;;4890628;29;20196;-79
2023/04/10 14:12:42;;;;;;;5.88;5.63;;;20.60;42.80;;;;;;4883148;29;20214;-79
2023/04/10 14:15:08;;;;;;;6.80;6.50;;;20.30;44.40;;;;;;4884658;29;20215;-79
2023/04/10 14:17:34;;;;;;;6.90;6.57;;;20.40;44.20;;;;;;4903287;29;20779;-79
2023/04/10 14:20:00;;;;;;;8.00;7.60;;;20.30;44.60;;;;;;4888546;29;20188;-79
2023/04/10 14:22:26;;;;;;;6.43;6.13;;;20.30;45.10;;;;;;4887861;29;20191;-79
2023/04/10 14:24:51;;;;;;;6.93;6.63;;;20.60;44.30;;;;;;4909883;29;20243;-78
2023/04/10 14:27:17;;;;;;;6.63;6.32;;;20.60;44.20;;;;;;4917465;29;20184;-78
2023/04/10 14:29:43;;;;;;;6.75;6.35;;;20.60;44.50;;;;;;4891690;29;20247;-79
2023/04/10 14:32:09;;;;;;;6.95;6.65;;;20.50;44.90;;;;;;4891021;29;20211;-79
2023/04/10 14:34:34;;;;;;;6.50;6.20;;;20.30;45.20;;;;;;4908200;29;20214;-78
2023/04/10 14:37:01;;;;;;;6.57;6.18;;;20.60;44.80;;;;;;4891295;29;20286;-79
2023/04/10 14:39:27;;;;;;;6.25;5.95;;;20.60;45.20;;;;;;4906822;29;20195;-79
2023/04/10 14:41:52;;;;;;;6.60;6.30;;;20.40;44.90;;;;;;4890668;29;20187;-79
2023/04/10 14:44:18;;;;;;;7.18;6.88;;;20.10;45.60;;;;;;4906968;29;20279;-79
2023/04/10 14:46:44;;;;;;;7.28;6.85;;;19.90;45.80;;;;;;4907854;29;20184;-79
2023/04/10 14:49:11;;;;;;;6.45;6.15;;;19.90;46.30;;;;;;4895055;29;20203;-78
2023/04/10 14:51:37;;;;;;;6.30;6.03;;;19.70;46.50;;;;;;4909475;29;20188;-79
2023/04/10 14:54:04;;;;;;;6.78;6.47;;;19.60;45.30;;;;;;4908564;29;20712;-78
2023/04/10 14:56:30;;;;;;;5.88;5.57;;;19.80;46.30;;;;;;4908094;29;20211;-78
2023/04/10 14:58:55;;;;;;;5.90;5.50;;;20.00;46.60;;;;;;4916396;29;20569;-79
2023/04/10 15:01:21;;;;;;;5.53;5.32;;;20.10;46.60;;;;;;4907454;29;20176;-79
2023/04/10 15:03:47;;;;;;;6.47;6.18;;;20.50;46.80;;;;;;4907440;29;20195;-79
2023/04/10 15:06:14;;;;;;;6.40;6.10;;;20.70;45.50;;;;;;4908947;29;20192;-80
2023/04/10 15:08:40;;;;;;;6.80;6.50;;;20.80;45.30;;;;;;4906623;29;20183;-79
2023/04/10 15:11:06;;;;;;;6.45;6.07;;;21.10;45.10;;;;;;4906891;29;20191;-79
2023/04/10 15:13:32;;;;;;;7.93;7.43;;;20.90;45.10;;;;;;4902560;29;20219;-79
2023/04/10 15:15:58;;;;;;;6.07;5.78;;;20.50;46.10;;;;;;4951468;23;20238;-77
2023/04/10 15:18:25;;;;;;;6.32;5.90;;;20.30;45.80;;;;;;4922436;29;20194;-77
2023/04/10 15:20:51;;;;;;;5.38;5.07;;;19.90;46.60;;;;;;4907946;29;20186;-77
2023/04/10 15:23:17;;;;;;;5.35;5.13;;;19.90;47.20;;;;;;4906200;29;20187;-77
2023/04/10 15:25:43;;;;;;;5.57;5.25;;;19.80;47.30;;;;;;4910678;29;20290;-77
2023/04/10 15:28:09;;;;;;;5.47;5.18;;;19.80;47.80;;;;;;4920610;29;20187;-76
2023/04/10 15:30:34;;;;;;;6.35;5.95;;;20.10;47.30;;;;;;4945009;29;20262;-77
2023/04/10 15:33:00;;;;;;;5.90;5.50;;;20.40;47.00;;;;;;4935546;29;20222;-77
2023/04/10 15:35:27;;;;;;;6.15;5.85;;;20.60;46.90;;;;;;4950549;29;20198;-77
2023/04/10 15:37:53;;;;;;;6.35;5.95;;;20.40;45.50;;;;;;4934474;29;20202;-76
2023/04/10 15:40:19;;;;;;;5.53;5.22;;;19.90;47.30;;;;;;4939011;29;20182;-77
2023/04/10 15:42:45;;;;;;;5.93;5.53;;;19.60;48.30;;;;;;4925615;29;20190;-77